sensor_id;sensor_type;location;lat;lon;timestamp;P1;durP1;ratioP1;P2;durP2;ratioP2
7359;SDS011;3720;48.274;7.796;2023-01-31T00:01:27;12.82;;;8.32;;
7359;SDS011;3720;48.274;7.796;2023-01-31T00:04:03;14.48;;;9.38;;
7359;SDS011;3720;48.274;7.796;2023-01-31T00:06:39;15.85;;;9.27;;
7359;SDS011;3720;48.274;7.796;2023-01-31T00:09:13;15.33;;;9.37;;
7359;SDS011;3720;48.274;7.796;2023-01-31T00:11:44;15.23;;;8.80;;
7359;SDS011;3720;48.274;7.796;2023-01-31T00:14:17;15.27;;;9.02;;
7359;SDS011;3720;48.274;7.796;2023-01-31T00:16:50;15.18;;;9.00;;
7359;SDS011;3720;48.274;7.796;2023-01-31T00:19:22;15.27;;;9.60;;
7359;SDS011;3720;48.274;7.796;2023-01-31T00:21:56;15.55;;;9.45;;
7359;SDS011;3720;48.274;7.796;2023-01-31T00:24:28;15.48;;;9.32;;
7359;SDS011;3720;48.274;7.796;2023-01-31T00:27:00;16.40;;;9.63;;
7359;SDS011;3720;48.274;7.796;2023-01-31T00:29:32;15.85;;;9.25;;
7359;SDS011;3720;48.274;7.796;2023-01-31T00:32:04;17.10;;;9.50;;
7359;SDS011;3720;48.274;7.796;2023-01-31T00:34:36;15.82;;;9.90;;
7359;SDS011;3720;48.274;7.796;2023-01-31T00:37:09;15.73;;;9.30;;
7359;SDS011;3720;48.274;7.796;2023-01-31T00:39:41;16.38;;;9.70;;
7359;SDS011;3720;48.274;7.796;2023-01-31T00:42:13;18.85;;;9.98;;
7359;SDS011;3720;48.274;7.796;2023-01-31T00:44:45;17.25;;;9.93;;
7359;SDS011;3720;48.274;7.796;2023-01-31T00:47:17;16.67;;;9.98;;
7359;SDS011;3720;48.274;7.796;2023-01-31T00:49:49;17.60;;;10.30;;
7359;SDS011;3720;48.274;7.796;2023-01-31T00:52:22;18.27;;;10.63;;
7359;SDS011;3720;48.274;7.796;2023-01-31T00:54:54;18.55;;;10.63;;
7359;SDS011;3720;48.274;7.796;2023-01-31T00:57:26;18.63;;;10.57;;
7359;SDS011;3720;48.274;7.796;2023-01-31T00:59:58;17.75;;;10.23;;
7359;SDS011;3720;48.274;7.796;2023-01-31T01:02:30;19.48;;;11.00;;
7359;SDS011;3720;48.274;7.796;2023-01-31T01:05:02;20.80;;;11.30;;
7359;SDS011;3720;48.274;7.796;2023-01-31T01:07:36;19.10;;;10.52;;
7359;SDS011;3720;48.274;7.796;2023-01-31T01:10:08;19.85;;;11.43;;
7359;SDS011;3720;48.274;7.796;2023-01-31T01:12:41;19.02;;;11.05;;
7359;SDS011;3720;48.274;7.796;2023-01-31T01:15:13;19.63;;;11.40;;
7359;SDS011;3720;48.274;7.796;2023-01-31T01:17:45;20.50;;;11.70;;
7359;SDS011;3720;48.274;7.796;2023-01-31T01:20:17;19.35;;;11.27;;
7359;SDS011;3720;48.274;7.796;2023-01-31T01:22:50;20.35;;;11.60;;
7359;SDS011;3720;48.274;7.796;2023-01-31T01:25:22;18.92;;;11.55;;
7359;SDS011;3720;48.274;7.796;2023-01-31T01:27:54;20.58;;;11.77;;
7359;SDS011;3720;48.274;7.796;2023-01-31T01:30:26;19.15;;;11.35;;
7359;SDS011;3720;48.274;7.796;2023-01-31T01:32:58;22.08;;;12.18;;
7359;SDS011;3720;48.274;7.796;2023-01-31T01:35:30;21.45;;;12.80;;
7359;SDS011;3720;48.274;7.796;2023-01-31T01:38:03;19.27;;;11.55;;
7359;SDS011;3720;48.274;7.796;2023-01-31T01:40:36;20.50;;;12.50;;
7359;SDS011;3720;48.274;7.796;2023-01-31T01:43:09;22.92;;;12.10;;
7359;SDS011;3720;48.274;7.796;2023-01-31T01:45:41;22.58;;;11.52;;
7359;SDS011;3720;48.274;7.796;2023-01-31T01:48:15;22.58;;;12.15;;
7359;SDS011;3720;48.274;7.796;2023-01-31T01:50:48;22.05;;;12.68;;
7359;SDS011;3720;48.274;7.796;2023-01-31T01:53:22;22.63;;;12.63;;
7359;SDS011;3720;48.274;7.796;2023-01-31T01:58:35;21.75;;;11.88;;
7359;SDS011;3720;48.274;7.796;2023-01-31T02:01:11;21.20;;;12.43;;
7359;SDS011;3720;48.274;7.796;2023-01-31T02:03:45;23.70;;;11.57;;
7359;SDS011;3720;48.274;7.796;2023-01-31T02:06:19;19.35;;;11.68;;
7359;SDS011;3720;48.274;7.796;2023-01-31T02:08:53;19.52;;;11.32;;
7359;SDS011;3720;48.274;7.796;2023-01-31T02:11:26;22.05;;;11.98;;
7359;SDS011;3720;48.274;7.796;2023-01-31T02:14:01;23.02;;;12.43;;
7359;SDS011;3720;48.274;7.796;2023-01-31T02:16:36;22.42;;;12.60;;
7359;SDS011;3720;48.274;7.796;2023-01-31T02:19:09;23.48;;;13.07;;
7359;SDS011;3720;48.274;7.796;2023-01-31T02:22:00;24.65;;;13.15;;
7359;SDS011;3720;48.274;7.796;2023-01-31T02:28:11;21.40;;;11.82;;
7359;SDS011;3720;48.274;7.796;2023-01-31T02:34:11;22.48;;;12.55;;
7359;SDS011;3720;48.274;7.796;2023-01-31T02:36:50;24.90;;;12.85;;
7359;SDS011;3720;48.274;7.796;2023-01-31T02:39:30;22.70;;;12.40;;
7359;SDS011;3720;48.274;7.796;2023-01-31T02:42:12;22.98;;;12.90;;
7359;SDS011;3720;48.274;7.796;2023-01-31T02:44:51;23.45;;;12.55;;
7359;SDS011;3720;48.274;7.796;2023-01-31T02:47:33;22.27;;;12.80;;
7359;SDS011;3720;48.274;7.796;2023-01-31T02:50:17;24.27;;;12.80;;
7359;SDS011;3720;48.274;7.796;2023-01-31T02:52:56;23.55;;;12.57;;
7359;SDS011;3720;48.274;7.796;2023-01-31T02:55:34;24.50;;;12.93;;
7359;SDS011;3720;48.274;7.796;2023-01-31T02:58:27;24.27;;;12.52;;
7359;SDS011;3720;48.274;7.796;2023-01-31T03:01:04;23.67;;;12.65;;
7359;SDS011;3720;48.274;7.796;2023-01-31T03:03:37;23.23;;;13.15;;
7359;SDS011;3720;48.274;7.796;2023-01-31T03:09:26;23.80;;;13.15;;
7359;SDS011;3720;48.274;7.796;2023-01-31T03:12:16;22.48;;;12.20;;
7359;SDS011;3720;48.274;7.796;2023-01-31T03:15:04;23.73;;;12.95;;
7359;SDS011;3720;48.274;7.796;2023-01-31T03:17:54;23.73;;;12.52;;
7359;SDS011;3720;48.274;7.796;2023-01-31T03:20:31;22.23;;;12.45;;
7359;SDS011;3720;48.274;7.796;2023-01-31T03:23:11;25.23;;;13.30;;
7359;SDS011;3720;48.274;7.796;2023-01-31T03:25:47;24.92;;;13.90;;
7359;SDS011;3720;48.274;7.796;2023-01-31T03:28:22;24.75;;;13.57;;
7359;SDS011;3720;48.274;7.796;2023-01-31T03:31:00;24.40;;;12.88;;
7359;SDS011;3720;48.274;7.796;2023-01-31T03:33:39;23.52;;;13.38;;
7359;SDS011;3720;48.274;7.796;2023-01-31T03:36:16;24.98;;;13.10;;
7359;SDS011;3720;48.274;7.796;2023-01-31T03:38:57;24.73;;;13.40;;
7359;SDS011;3720;48.274;7.796;2023-01-31T03:41:41;24.70;;;13.63;;
7359;SDS011;3720;48.274;7.796;2023-01-31T03:44:20;23.33;;;13.13;;
7359;SDS011;3720;48.274;7.796;2023-01-31T03:46:58;25.40;;;13.90;;
7359;SDS011;3720;48.274;7.796;2023-01-31T03:52:08;22.30;;;12.32;;
7359;SDS011;3720;48.274;7.796;2023-01-31T03:54:43;24.10;;;12.77;;
7359;SDS011;3720;48.274;7.796;2023-01-31T03:57:21;25.98;;;14.13;;
7359;SDS011;3720;48.274;7.796;2023-01-31T03:59:56;30.42;;;13.82;;
7359;SDS011;3720;48.274;7.796;2023-01-31T04:02:32;26.15;;;13.80;;
7359;SDS011;3720;48.274;7.796;2023-01-31T04:05:08;28.60;;;13.93;;
7359;SDS011;3720;48.274;7.796;2023-01-31T04:07:41;25.33;;;13.50;;
7359;SDS011;3720;48.274;7.796;2023-01-31T04:10:14;29.00;;;14.82;;
7359;SDS011;3720;48.274;7.796;2023-01-31T04:12:49;28.17;;;14.10;;
7359;SDS011;3720;48.274;7.796;2023-01-31T04:15:21;25.77;;;13.95;;
7359;SDS011;3720;48.274;7.796;2023-01-31T04:17:53;29.75;;;13.88;;
7359;SDS011;3720;48.274;7.796;2023-01-31T04:20:25;27.27;;;13.85;;
7359;SDS011;3720;48.274;7.796;2023-01-31T04:22:57;27.27;;;13.73;;
7359;SDS011;3720;48.274;7.796;2023-01-31T04:25:29;25.70;;;13.77;;
7359;SDS011;3720;48.274;7.796;2023-01-31T04:28:03;26.63;;;13.68;;
7359;SDS011;3720;48.274;7.796;2023-01-31T04:30:34;26.98;;;13.98;;
7359;SDS011;3720;48.274;7.796;2023-01-31T04:33:06;27.38;;;13.43;;
7359;SDS011;3720;48.274;7.796;2023-01-31T04:35:38;23.80;;;13.35;;
7359;SDS011;3720;48.274;7.796;2023-01-31T04:38:10;29.23;;;13.90;;
7359;SDS011;3720;48.274;7.796;2023-01-31T04:40:42;28.00;;;14.43;;
7359;SDS011;3720;48.274;7.796;2023-01-31T04:43:16;26.45;;;14.00;;
7359;SDS011;3720;48.274;7.796;2023-01-31T04:45:48;26.48;;;14.13;;
7359;SDS011;3720;48.274;7.796;2023-01-31T04:48:20;29.75;;;14.70;;
7359;SDS011;3720;48.274;7.796;2023-01-31T04:50:52;29.52;;;15.23;;
7359;SDS011;3720;48.274;7.796;2023-01-31T04:53:24;30.98;;;14.50;;
7359;SDS011;3720;48.274;7.796;2023-01-31T04:55:56;30.52;;;14.45;;
7359;SDS011;3720;48.274;7.796;2023-01-31T04:58:29;30.25;;;13.68;;
7359;SDS011;3720;48.274;7.796;2023-01-31T05:01:02;29.52;;;15.20;;
7359;SDS011;3720;48.274;7.796;2023-01-31T05:03:33;30.83;;;14.95;;
7359;SDS011;3720;48.274;7.796;2023-01-31T05:06:05;28.00;;;14.52;;
7359;SDS011;3720;48.274;7.796;2023-01-31T05:08:38;27.52;;;14.05;;
7359;SDS011;3720;48.274;7.796;2023-01-31T05:11:10;27.95;;;13.93;;
7359;SDS011;3720;48.274;7.796;2023-01-31T05:13:43;25.63;;;13.48;;
7359;SDS011;3720;48.274;7.796;2023-01-31T05:16:15;26.65;;;14.77;;
7359;SDS011;3720;48.274;7.796;2023-01-31T05:18:46;27.08;;;13.35;;
7359;SDS011;3720;48.274;7.796;2023-01-31T05:21:19;29.08;;;14.32;;
7359;SDS011;3720;48.274;7.796;2023-01-31T05:23:51;28.50;;;13.95;;
7359;SDS011;3720;48.274;7.796;2023-01-31T05:26:23;25.67;;;13.65;;
7359;SDS011;3720;48.274;7.796;2023-01-31T05:28:56;26.75;;;13.50;;
7359;SDS011;3720;48.274;7.796;2023-01-31T05:31:30;27.55;;;14.13;;
7359;SDS011;3720;48.274;7.796;2023-01-31T05:34:02;27.77;;;13.63;;
7359;SDS011;3720;48.274;7.796;2023-01-31T05:36:33;26.95;;;13.38;;
7359;SDS011;3720;48.274;7.796;2023-01-31T05:39:05;23.52;;;12.80;;
7359;SDS011;3720;48.274;7.796;2023-01-31T05:41:37;26.02;;;12.80;;
7359;SDS011;3720;48.274;7.796;2023-01-31T05:44:10;29.38;;;13.27;;
7359;SDS011;3720;48.274;7.796;2023-01-31T05:46:43;26.38;;;13.45;;
7359;SDS011;3720;48.274;7.796;2023-01-31T05:49:15;25.75;;;13.45;;
7359;SDS011;3720;48.274;7.796;2023-01-31T05:51:47;28.10;;;14.45;;
7359;SDS011;3720;48.274;7.796;2023-01-31T05:54:19;27.98;;;14.38;;
7359;SDS011;3720;48.274;7.796;2023-01-31T05:56:51;29.70;;;14.25;;
7359;SDS011;3720;48.274;7.796;2023-01-31T05:59:24;26.95;;;13.57;;
7359;SDS011;3720;48.274;7.796;2023-01-31T06:01:59;26.40;;;14.18;;
7359;SDS011;3720;48.274;7.796;2023-01-31T06:04:31;28.58;;;14.55;;
7359;SDS011;3720;48.274;7.796;2023-01-31T06:07:03;27.45;;;13.60;;
7359;SDS011;3720;48.274;7.796;2023-01-31T06:09:35;28.70;;;14.15;;
7359;SDS011;3720;48.274;7.796;2023-01-31T06:12:09;29.02;;;14.23;;
7359;SDS011;3720;48.274;7.796;2023-01-31T06:14:45;30.50;;;14.02;;
7359;SDS011;3720;48.274;7.796;2023-01-31T06:17:18;29.75;;;15.02;;
7359;SDS011;3720;48.274;7.796;2023-01-31T06:19:52;29.20;;;14.93;;
7359;SDS011;3720;48.274;7.796;2023-01-31T06:22:24;27.85;;;13.80;;
7359;SDS011;3720;48.274;7.796;2023-01-31T06:24:56;31.40;;;15.45;;
7359;SDS011;3720;48.274;7.796;2023-01-31T06:27:30;28.50;;;14.20;;
7359;SDS011;3720;48.274;7.796;2023-01-31T06:30:04;27.80;;;14.23;;
7359;SDS011;3720;48.274;7.796;2023-01-31T06:32:37;30.13;;;14.93;;
7359;SDS011;3720;48.274;7.796;2023-01-31T06:35:09;30.02;;;14.27;;
7359;SDS011;3720;48.274;7.796;2023-01-31T06:37:41;29.55;;;14.63;;
7359;SDS011;3720;48.274;7.796;2023-01-31T06:40:13;28.83;;;14.95;;
7359;SDS011;3720;48.274;7.796;2023-01-31T06:42:45;29.02;;;14.77;;
7359;SDS011;3720;48.274;7.796;2023-01-31T06:45:18;28.40;;;13.95;;
7359;SDS011;3720;48.274;7.796;2023-01-31T06:47:50;30.70;;;14.80;;
7359;SDS011;3720;48.274;7.796;2023-01-31T06:50:22;30.52;;;14.82;;
7359;SDS011;3720;48.274;7.796;2023-01-31T06:52:54;27.48;;;14.18;;
7359;SDS011;3720;48.274;7.796;2023-01-31T06:55:28;30.70;;;14.45;;
7359;SDS011;3720;48.274;7.796;2023-01-31T06:58:00;26.90;;;13.95;;
7359;SDS011;3720;48.274;7.796;2023-01-31T07:00:33;29.27;;;14.45;;
7359;SDS011;3720;48.274;7.796;2023-01-31T07:03:05;31.30;;;15.00;;
7359;SDS011;3720;48.274;7.796;2023-01-31T07:05:37;31.40;;;14.93;;
7359;SDS011;3720;48.274;7.796;2023-01-31T07:08:09;29.73;;;15.02;;
7359;SDS011;3720;48.274;7.796;2023-01-31T07:10:40;31.63;;;15.73;;
7359;SDS011;3720;48.274;7.796;2023-01-31T07:13:12;33.17;;;16.30;;
7359;SDS011;3720;48.274;7.796;2023-01-31T07:15:46;32.28;;;15.82;;
7359;SDS011;3720;48.274;7.796;2023-01-31T07:18:18;33.10;;;15.73;;
7359;SDS011;3720;48.274;7.796;2023-01-31T07:20:50;30.08;;;15.10;;
7359;SDS011;3720;48.274;7.796;2023-01-31T07:23:22;30.05;;;15.73;;
7359;SDS011;3720;48.274;7.796;2023-01-31T07:25:54;32.72;;;15.93;;
7359;SDS011;3720;48.274;7.796;2023-01-31T07:28:26;33.45;;;16.10;;
7359;SDS011;3720;48.274;7.796;2023-01-31T07:31:04;34.15;;;16.20;;
7359;SDS011;3720;48.274;7.796;2023-01-31T07:33:36;32.63;;;16.45;;
7359;SDS011;3720;48.274;7.796;2023-01-31T07:36:10;32.63;;;15.70;;
7359;SDS011;3720;48.274;7.796;2023-01-31T07:38:44;33.88;;;16.17;;
7359;SDS011;3720;48.274;7.796;2023-01-31T07:41:16;32.55;;;15.63;;
7359;SDS011;3720;48.274;7.796;2023-01-31T07:43:48;33.00;;;15.27;;
7359;SDS011;3720;48.274;7.796;2023-01-31T07:46:21;30.35;;;15.60;;
7359;SDS011;3720;48.274;7.796;2023-01-31T07:48:53;34.03;;;16.45;;
7359;SDS011;3720;48.274;7.796;2023-01-31T07:51:25;32.92;;;15.77;;
7359;SDS011;3720;48.274;7.796;2023-01-31T07:53:57;36.80;;;16.08;;
7359;SDS011;3720;48.274;7.796;2023-01-31T07:56:29;34.13;;;16.45;;
7359;SDS011;3720;48.274;7.796;2023-01-31T07:59:01;35.38;;;16.20;;
7359;SDS011;3720;48.274;7.796;2023-01-31T08:01:34;34.00;;;16.45;;
7359;SDS011;3720;48.274;7.796;2023-01-31T08:04:23;34.55;;;16.63;;
7359;SDS011;3720;48.274;7.796;2023-01-31T08:06:55;36.75;;;17.58;;
7359;SDS011;3720;48.274;7.796;2023-01-31T08:09:28;35.17;;;16.80;;
7359;SDS011;3720;48.274;7.796;2023-01-31T08:12:00;37.03;;;16.98;;
7359;SDS011;3720;48.274;7.796;2023-01-31T08:14:32;35.97;;;16.05;;
7359;SDS011;3720;48.274;7.796;2023-01-31T08:17:05;37.05;;;16.30;;
7359;SDS011;3720;48.274;7.796;2023-01-31T08:19:38;38.08;;;16.80;;
7359;SDS011;3720;48.274;7.796;2023-01-31T08:22:10;36.00;;;16.52;;
7359;SDS011;3720;48.274;7.796;2023-01-31T08:24:42;35.92;;;16.63;;
7359;SDS011;3720;48.274;7.796;2023-01-31T08:27:14;34.47;;;16.50;;
7359;SDS011;3720;48.274;7.796;2023-01-31T08:29:45;35.30;;;17.30;;
7359;SDS011;3720;48.274;7.796;2023-01-31T08:32:19;38.33;;;17.55;;
7359;SDS011;3720;48.274;7.796;2023-01-31T08:34:50;37.83;;;18.45;;
7359;SDS011;3720;48.274;7.796;2023-01-31T08:37:22;41.30;;;18.30;;
7359;SDS011;3720;48.274;7.796;2023-01-31T08:39:54;38.25;;;17.55;;
7359;SDS011;3720;48.274;7.796;2023-01-31T08:42:26;33.85;;;16.77;;
7359;SDS011;3720;48.274;7.796;2023-01-31T08:44:58;35.38;;;16.92;;
7359;SDS011;3720;48.274;7.796;2023-01-31T08:47:31;35.42;;;17.40;;
7359;SDS011;3720;48.274;7.796;2023-01-31T08:50:03;35.58;;;17.80;;
7359;SDS011;3720;48.274;7.796;2023-01-31T08:52:37;35.83;;;17.27;;
7359;SDS011;3720;48.274;7.796;2023-01-31T08:55:09;36.15;;;17.35;;
7359;SDS011;3720;48.274;7.796;2023-01-31T08:57:42;36.30;;;17.00;;
7359;SDS011;3720;48.274;7.796;2023-01-31T09:00:15;36.35;;;17.00;;
7359;SDS011;3720;48.274;7.796;2023-01-31T09:02:51;35.70;;;17.05;;
7359;SDS011;3720;48.274;7.796;2023-01-31T09:05:25;35.85;;;17.00;;
7359;SDS011;3720;48.274;7.796;2023-01-31T09:07:58;32.95;;;16.27;;
7359;SDS011;3720;48.274;7.796;2023-01-31T09:10:30;33.80;;;16.90;;
7359;SDS011;3720;48.274;7.796;2023-01-31T09:13:02;31.63;;;16.63;;
7359;SDS011;3720;48.274;7.796;2023-01-31T09:15:35;32.10;;;15.63;;
7359;SDS011;3720;48.274;7.796;2023-01-31T09:18:08;31.60;;;16.08;;
7359;SDS011;3720;48.274;7.796;2023-01-31T09:20:40;29.63;;;15.13;;
7359;SDS011;3720;48.274;7.796;2023-01-31T09:23:11;35.05;;;16.23;;
7359;SDS011;3720;48.274;7.796;2023-01-31T09:25:44;29.63;;;14.65;;
7359;SDS011;3720;48.274;7.796;2023-01-31T09:28:22;29.35;;;14.65;;
7359;SDS011;3720;48.274;7.796;2023-01-31T09:30:54;28.95;;;14.20;;
7359;SDS011;3720;48.274;7.796;2023-01-31T09:33:27;29.58;;;14.00;;
7359;SDS011;3720;48.274;7.796;2023-01-31T09:36:02;28.00;;;13.77;;
7359;SDS011;3720;48.274;7.796;2023-01-31T09:38:36;25.88;;;13.45;;
7359;SDS011;3720;48.274;7.796;2023-01-31T09:41:13;28.52;;;13.65;;
7359;SDS011;3720;48.274;7.796;2023-01-31T09:43:51;24.55;;;13.02;;
7359;SDS011;3720;48.274;7.796;2023-01-31T09:46:26;27.42;;;14.05;;
7359;SDS011;3720;48.274;7.796;2023-01-31T09:49:05;29.67;;;14.45;;
7359;SDS011;3720;48.274;7.796;2023-01-31T09:51:41;26.92;;;14.02;;
7359;SDS011;3720;48.274;7.796;2023-01-31T09:54:17;31.45;;;15.10;;
7359;SDS011;3720;48.274;7.796;2023-01-31T09:57:00;30.17;;;14.27;;
7359;SDS011;3720;48.274;7.796;2023-01-31T09:59:41;25.67;;;14.02;;
7359;SDS011;3720;48.274;7.796;2023-01-31T10:02:29;25.10;;;13.20;;
7359;SDS011;3720;48.274;7.796;2023-01-31T10:05:16;22.55;;;12.00;;
7359;SDS011;3720;48.274;7.796;2023-01-31T10:07:57;22.00;;;11.23;;
7359;SDS011;3720;48.274;7.796;2023-01-31T10:10:36;19.05;;;10.07;;
7359;SDS011;3720;48.274;7.796;2023-01-31T10:13:15;20.05;;;9.93;;
7359;SDS011;3720;48.274;7.796;2023-01-31T10:15:52;19.63;;;9.60;;
7359;SDS011;3720;48.274;7.796;2023-01-31T10:18:31;18.30;;;9.13;;
7359;SDS011;3720;48.274;7.796;2023-01-31T10:21:10;19.48;;;9.15;;
7359;SDS011;3720;48.274;7.796;2023-01-31T10:23:45;17.42;;;8.90;;
7359;SDS011;3720;48.274;7.796;2023-01-31T10:26:23;17.92;;;8.27;;
7359;SDS011;3720;48.274;7.796;2023-01-31T10:28:59;18.05;;;9.35;;
7359;SDS011;3720;48.274;7.796;2023-01-31T10:31:37;15.55;;;7.70;;
7359;SDS011;3720;48.274;7.796;2023-01-31T10:34:14;18.55;;;8.52;;
7359;SDS011;3720;48.274;7.796;2023-01-31T10:36:54;18.00;;;8.23;;
7359;SDS011;3720;48.274;7.796;2023-01-31T10:39:32;16.92;;;8.82;;
7359;SDS011;3720;48.274;7.796;2023-01-31T10:42:11;19.48;;;8.82;;
7359;SDS011;3720;48.274;7.796;2023-01-31T10:44:49;16.30;;;7.95;;
7359;SDS011;3720;48.274;7.796;2023-01-31T10:47:26;21.05;;;9.38;;
7359;SDS011;3720;48.274;7.796;2023-01-31T10:50:10;17.65;;;7.93;;
7359;SDS011;3720;48.274;7.796;2023-01-31T10:52:48;16.73;;;8.10;;
7359;SDS011;3720;48.274;7.796;2023-01-31T10:55:47;20.13;;;8.60;;
7359;SDS011;3720;48.274;7.796;2023-01-31T10:58:26;16.90;;;7.68;;
7359;SDS011;3720;48.274;7.796;2023-01-31T11:00:58;16.00;;;7.55;;
7359;SDS011;3720;48.274;7.796;2023-01-31T11:03:30;19.35;;;8.20;;
7359;SDS011;3720;48.274;7.796;2023-01-31T11:06:02;14.77;;;7.72;;
7359;SDS011;3720;48.274;7.796;2023-01-31T11:08:39;15.43;;;8.32;;
7359;SDS011;3720;48.274;7.796;2023-01-31T11:11:14;15.88;;;8.25;;
7359;SDS011;3720;48.274;7.796;2023-01-31T11:13:57;16.88;;;8.40;;
7359;SDS011;3720;48.274;7.796;2023-01-31T11:16:31;15.95;;;7.78;;
7359;SDS011;3720;48.274;7.796;2023-01-31T11:19:12;14.20;;;7.75;;
7359;SDS011;3720;48.274;7.796;2023-01-31T11:21:49;17.92;;;7.95;;
7359;SDS011;3720;48.274;7.796;2023-01-31T11:24:24;15.27;;;7.78;;
7359;SDS011;3720;48.274;7.796;2023-01-31T11:26:59;17.38;;;7.68;;
7359;SDS011;3720;48.274;7.796;2023-01-31T11:29:34;17.00;;;8.18;;
7359;SDS011;3720;48.274;7.796;2023-01-31T11:32:12;17.75;;;7.70;;
7359;SDS011;3720;48.274;7.796;2023-01-31T11:34:58;17.45;;;8.00;;
7359;SDS011;3720;48.274;7.796;2023-01-31T11:37:32;17.05;;;8.23;;
7359;SDS011;3720;48.274;7.796;2023-01-31T11:40:17;17.58;;;8.13;;
7359;SDS011;3720;48.274;7.796;2023-01-31T11:42:51;17.53;;;7.93;;
7359;SDS011;3720;48.274;7.796;2023-01-31T11:45:24;13.18;;;7.13;;
7359;SDS011;3720;48.274;7.796;2023-01-31T11:47:58;14.35;;;7.40;;
7359;SDS011;3720;48.274;7.796;2023-01-31T11:50:38;19.73;;;9.65;;
7359;SDS011;3720;48.274;7.796;2023-01-31T11:53:15;16.85;;;9.15;;
7359;SDS011;3720;48.274;7.796;2023-01-31T11:55:51;17.90;;;8.65;;
7359;SDS011;3720;48.274;7.796;2023-01-31T11:58:29;18.08;;;8.45;;
7359;SDS011;3720;48.274;7.796;2023-01-31T12:01:06;16.77;;;8.38;;
7359;SDS011;3720;48.274;7.796;2023-01-31T12:03:44;14.38;;;8.55;;
7359;SDS011;3720;48.274;7.796;2023-01-31T12:06:25;16.35;;;8.70;;
7359;SDS011;3720;48.274;7.796;2023-01-31T12:08:59;17.20;;;7.88;;
7359;SDS011;3720;48.274;7.796;2023-01-31T12:11:34;17.08;;;8.35;;
7359;SDS011;3720;48.274;7.796;2023-01-31T12:14:08;17.58;;;8.40;;
7359;SDS011;3720;48.274;7.796;2023-01-31T12:16:45;15.57;;;8.30;;
7359;SDS011;3720;48.274;7.796;2023-01-31T12:19:20;19.23;;;9.23;;
7359;SDS011;3720;48.274;7.796;2023-01-31T12:22:04;19.75;;;8.55;;
7359;SDS011;3720;48.274;7.796;2023-01-31T12:24:43;19.17;;;8.60;;
7359;SDS011;3720;48.274;7.796;2023-01-31T12:27:29;15.73;;;8.40;;
7359;SDS011;3720;48.274;7.796;2023-01-31T12:30:24;14.88;;;8.32;;
7359;SDS011;3720;48.274;7.796;2023-01-31T12:33:08;16.83;;;8.65;;
7359;SDS011;3720;48.274;7.796;2023-01-31T12:35:56;16.73;;;7.93;;
7359;SDS011;3720;48.274;7.796;2023-01-31T12:38:48;14.82;;;8.23;;
7359;SDS011;3720;48.274;7.796;2023-01-31T12:41:34;17.55;;;8.10;;
7359;SDS011;3720;48.274;7.796;2023-01-31T12:46:54;15.48;;;7.85;;
7359;SDS011;3720;48.274;7.796;2023-01-31T12:49:47;15.27;;;7.72;;
7359;SDS011;3720;48.274;7.796;2023-01-31T12:52:30;17.10;;;8.90;;
7359;SDS011;3720;48.274;7.796;2023-01-31T12:55:12;28.13;;;11.13;;
7359;SDS011;3720;48.274;7.796;2023-01-31T12:57:53;19.13;;;10.00;;
7359;SDS011;3720;48.274;7.796;2023-01-31T13:00:38;23.98;;;11.95;;
7359;SDS011;3720;48.274;7.796;2023-01-31T13:03:28;17.27;;;9.10;;
7359;SDS011;3720;48.274;7.796;2023-01-31T13:06:08;24.83;;;12.25;;
7359;SDS011;3720;48.274;7.796;2023-01-31T13:08:45;33.00;;;17.50;;
7359;SDS011;3720;48.274;7.796;2023-01-31T13:11:23;31.95;;;15.77;;
7359;SDS011;3720;48.274;7.796;2023-01-31T13:13:59;33.97;;;18.20;;
7359;SDS011;3720;48.274;7.796;2023-01-31T13:16:35;20.58;;;11.75;;
7359;SDS011;3720;48.274;7.796;2023-01-31T13:19:12;19.00;;;10.02;;
7359;SDS011;3720;48.274;7.796;2023-01-31T13:21:49;14.95;;;7.95;;
7359;SDS011;3720;48.274;7.796;2023-01-31T13:24:25;16.23;;;8.07;;
7359;SDS011;3720;48.274;7.796;2023-01-31T13:27:02;15.43;;;8.18;;
7359;SDS011;3720;48.274;7.796;2023-01-31T13:29:42;15.80;;;8.90;;
7359;SDS011;3720;48.274;7.796;2023-01-31T13:32:19;19.88;;;9.05;;
7359;SDS011;3720;48.274;7.796;2023-01-31T13:34:58;19.13;;;10.00;;
7359;SDS011;3720;48.274;7.796;2023-01-31T13:37:36;21.08;;;11.63;;
7359;SDS011;3720;48.274;7.796;2023-01-31T13:40:15;29.63;;;13.05;;
7359;SDS011;3720;48.274;7.796;2023-01-31T13:42:49;20.55;;;10.00;;
7359;SDS011;3720;48.274;7.796;2023-01-31T13:45:24;20.80;;;9.88;;
7359;SDS011;3720;48.274;7.796;2023-01-31T13:48:01;12.07;;;6.13;;
7359;SDS011;3720;48.274;7.796;2023-01-31T13:50:40;13.48;;;6.40;;
7359;SDS011;3720;48.274;7.796;2023-01-31T13:53:17;11.95;;;6.20;;
7359;SDS011;3720;48.274;7.796;2023-01-31T13:55:53;11.55;;;5.88;;
7359;SDS011;3720;48.274;7.796;2023-01-31T13:58:27;14.95;;;7.30;;
7359;SDS011;3720;48.274;7.796;2023-01-31T14:01:01;13.70;;;6.10;;
7359;SDS011;3720;48.274;7.796;2023-01-31T14:06:54;12.95;;;6.18;;
7359;SDS011;3720;48.274;7.796;2023-01-31T14:15:55;13.70;;;6.53;;
7359;SDS011;3720;48.274;7.796;2023-01-31T14:18:34;16.63;;;6.00;;
7359;SDS011;3720;48.274;7.796;2023-01-31T14:24:18;12.95;;;5.80;;
7359;SDS011;3720;48.274;7.796;2023-01-31T14:27:15;11.23;;;5.60;;
7359;SDS011;3720;48.274;7.796;2023-01-31T14:29:51;14.90;;;5.85;;
7359;SDS011;3720;48.274;7.796;2023-01-31T14:32:29;11.63;;;5.80;;
7359;SDS011;3720;48.274;7.796;2023-01-31T14:35:06;11.68;;;5.28;;
7359;SDS011;3720;48.274;7.796;2023-01-31T14:37:56;11.43;;;5.05;;
7359;SDS011;3720;48.274;7.796;2023-01-31T14:40:39;12.13;;;5.28;;
7359;SDS011;3720;48.274;7.796;2023-01-31T14:43:34;10.38;;;5.00;;
7359;SDS011;3720;48.274;7.796;2023-01-31T14:49:13;11.68;;;4.88;;
7359;SDS011;3720;48.274;7.796;2023-01-31T14:52:03;10.70;;;5.40;;
7359;SDS011;3720;48.274;7.796;2023-01-31T14:54:55;10.00;;;4.85;;
7359;SDS011;3720;48.274;7.796;2023-01-31T14:57:40;11.20;;;4.70;;
7359;SDS011;3720;48.274;7.796;2023-01-31T15:00:15;10.50;;;4.80;;
7359;SDS011;3720;48.274;7.796;2023-01-31T15:02:54;9.43;;;4.57;;
7359;SDS011;3720;48.274;7.796;2023-01-31T15:05:40;10.80;;;5.03;;
7359;SDS011;3720;48.274;7.796;2023-01-31T15:11:34;11.15;;;4.80;;
7359;SDS011;3720;48.274;7.796;2023-01-31T15:14:20;12.77;;;4.60;;
7359;SDS011;3720;48.274;7.796;2023-01-31T15:17:00;11.02;;;4.95;;
7359;SDS011;3720;48.274;7.796;2023-01-31T15:19:40;12.65;;;4.95;;
7359;SDS011;3720;48.274;7.796;2023-01-31T15:22:17;8.95;;;4.82;;
7359;SDS011;3720;48.274;7.796;2023-01-31T15:24:51;10.07;;;4.88;;
7359;SDS011;3720;48.274;7.796;2023-01-31T15:27:26;9.93;;;4.28;;
7359;SDS011;3720;48.274;7.796;2023-01-31T15:30:03;9.80;;;4.45;;
7359;SDS011;3720;48.274;7.796;2023-01-31T15:32:38;9.55;;;4.38;;
7359;SDS011;3720;48.274;7.796;2023-01-31T15:35:19;9.88;;;4.80;;
7359;SDS011;3720;48.274;7.796;2023-01-31T15:37:54;10.20;;;4.70;;
7359;SDS011;3720;48.274;7.796;2023-01-31T15:43:14;7.60;;;4.38;;
7359;SDS011;3720;48.274;7.796;2023-01-31T15:45:49;12.45;;;4.60;;
7359;SDS011;3720;48.274;7.796;2023-01-31T15:48:21;10.02;;;4.50;;
7359;SDS011;3720;48.274;7.796;2023-01-31T15:50:54;9.20;;;5.10;;
7359;SDS011;3720;48.274;7.796;2023-01-31T15:53:27;10.15;;;5.28;;
7359;SDS011;3720;48.274;7.796;2023-01-31T15:56:01;9.82;;;5.20;;
7359;SDS011;3720;48.274;7.796;2023-01-31T15:58:34;11.88;;;5.40;;
7359;SDS011;3720;48.274;7.796;2023-01-31T16:01:12;10.07;;;5.30;;
7359;SDS011;3720;48.274;7.796;2023-01-31T16:03:50;9.35;;;5.32;;
7359;SDS011;3720;48.274;7.796;2023-01-31T16:06:24;10.43;;;5.47;;
7359;SDS011;3720;48.274;7.796;2023-01-31T16:08:58;10.48;;;5.90;;
7359;SDS011;3720;48.274;7.796;2023-01-31T16:11:32;10.00;;;5.93;;
7359;SDS011;3720;48.274;7.796;2023-01-31T16:14:05;10.10;;;5.55;;
7359;SDS011;3720;48.274;7.796;2023-01-31T16:16:39;11.65;;;5.60;;
7359;SDS011;3720;48.274;7.796;2023-01-31T16:19:12;11.25;;;6.07;;
7359;SDS011;3720;48.274;7.796;2023-01-31T16:21:52;9.80;;;5.63;;
7359;SDS011;3720;48.274;7.796;2023-01-31T16:24:26;10.05;;;5.68;;